Time;durP1;ratioP1;P1;durP2;ratioP2;P2;SDS_P1;SDS_P2;PMS_P1;PMS_P2;Temp;Humidity;BMP_temperature;BMP_pressure;BME280_temperature;BME280_humidity;BME280_pressure;Samples;Min_cycle;Max_cycle;Signal;HPM_P1;HPM_P2
2021/06/26 00:00:51;;;;;;;23.53;10.60;;;18.60;99.90;;;;;;6281702;22;20431;-82
2021/06/26 00:03:19;;;;;;;22.47;11.37;;;18.60;99.90;;;;;;6280935;22;20434;-81
2021/06/26 00:05:46;;;;;;;26.93;11.73;;;18.60;99.90;;;;;;6280803;22;20464;-81
2021/06/26 00:08:13;;;;;;;23.23;10.93;;;18.50;99.90;;;;;;6281582;22;20407;-81
2021/06/26 00:10:41;;;;;;;22.53;11.07;;;18.40;99.90;;;;;;6282232;22;20410;-81
2021/06/26 00:13:08;;;;;;;24.33;11.77;;;18.40;99.90;;;;;;6282220;22;20517;-81
2021/06/26 00:15:35;;;;;;;23.77;11.90;;;18.30;99.90;;;;;;6282687;22;20477;-82
2021/06/26 00:18:02;;;;;;;21.03;11.70;;;18.20;99.90;;;;;;6283544;22;20407;-82
2021/06/26 00:20:31;;;;;;;23.20;12.17;;;18.20;99.90;;;;;;6285046;22;20405;-82
2021/06/26 00:22:57;;;;;;;23.43;12.30;;;18.10;99.90;;;;;;6284103;22;20431;-82
2021/06/26 00:25:25;;;;;;;22.50;11.73;;;18.10;99.90;;;;;;6284294;22;20440;-81
2021/06/26 00:27:52;;;;;;;21.83;11.80;;;18.00;99.90;;;;;;6284561;22;20407;-82
2021/06/26 00:30:20;;;;;;;21.40;11.03;;;18.00;99.90;;;;;;6284497;22;20421;-82
2021/06/26 00:32:47;;;;;;;20.90;11.50;;;17.90;99.90;;;;;;6283509;22;20494;-82
2021/06/26 00:35:15;;;;;;;20.43;12.07;;;17.80;99.90;;;;;;6283351;22;20960;-82
2021/06/26 00:37:44;;;;;;;20.67;11.80;;;17.80;99.90;;;;;;6284843;22;20407;-81
2021/06/26 00:40:12;;;;;;;19.97;12.10;;;17.70;99.90;;;;;;6284759;22;20446;-82
2021/06/26 00:42:41;;;;;;;19.67;11.77;;;17.70;99.90;;;;;;6285176;22;20431;-82
2021/06/26 00:45:09;;;;;;;22.57;12.40;;;17.60;99.90;;;;;;6289174;22;20944;-82
2021/06/26 00:47:36;;;;;;;19.60;11.70;;;17.60;99.90;;;;;;6283567;22;20983;-82
2021/06/26 00:50:04;;;;;;;21.17;12.37;;;17.60;99.90;;;;;;6283812;22;20443;-82
2021/06/26 00:52:31;;;;;;;21.50;12.60;;;17.50;99.90;;;;;;6284915;22;20498;-81
2021/06/26 00:54:59;;;;;;;19.67;12.20;;;17.40;99.90;;;;;;6283788;22;20446;-81
2021/06/26 00:57:27;;;;;;;19.70;11.90;;;17.40;99.90;;;;;;6285450;22;20501;-82
2021/06/26 00:59:53;;;;;;;23.40;13.53;;;17.30;99.90;;;;;;6284421;22;20436;-81
2021/06/26 01:02:20;;;;;;;20.07;12.50;;;17.30;99.90;;;;;;6284240;22;20482;-81
2021/06/26 01:04:47;;;;;;;19.43;11.90;;;17.20;99.90;;;;;;6284316;22;20426;-81
2021/06/26 01:07:14;;;;;;;20.17;11.87;;;17.20;99.90;;;;;;6283553;22;20490;-81
2021/06/26 01:09:41;;;;;;;20.03;12.20;;;17.20;99.90;;;;;;6283571;22;20510;-82
2021/06/26 01:12:09;;;;;;;20.10;13.10;;;17.10;99.90;;;;;;6283595;22;20430;-81
2021/06/26 01:14:36;;;;;;;20.43;11.77;;;17.10;99.90;;;;;;6283530;22;20490;-81
2021/06/26 01:17:08;;;;;;;22.47;13.00;;;17.00;99.90;;;;;;6282771;22;20467;-81
2021/06/26 01:19:36;;;;;;;20.90;13.00;;;17.00;99.90;;;;;;6282104;22;20799;-81
2021/06/26 01:22:06;;;;;;;23.13;13.67;;;17.00;99.90;;;;;;6282517;22;20805;-81
2021/06/26 01:24:34;;;;;;;21.90;13.10;;;16.90;99.90;;;;;;6283512;22;20407;-82
2021/06/26 01:27:01;;;;;;;21.70;12.83;;;16.90;99.90;;;;;;6281782;22;20457;-81
2021/06/26 01:29:29;;;;;;;19.40;12.53;;;16.80;99.90;;;;;;6281774;22;20411;-81
2021/06/26 01:31:56;;;;;;;21.57;12.83;;;16.80;99.90;;;;;;6283184;22;20437;-82
2021/06/26 01:34:24;;;;;;;22.30;14.07;;;16.80;99.90;;;;;;6281714;22;20410;-81
2021/06/26 01:36:52;;;;;;;22.50;14.07;;;16.70;99.90;;;;;;6281431;22;20438;-81
2021/06/26 01:39:19;;;;;;;21.47;12.33;;;16.70;99.90;;;;;;6279657;22;20407;-81
2021/06/26 01:41:47;;;;;;;20.20;12.90;;;16.70;99.90;;;;;;6280719;22;21016;-81
2021/06/26 01:44:14;;;;;;;19.53;13.47;;;16.70;99.90;;;;;;6279756;22;20421;-81
2021/06/26 01:46:41;;;;;;;19.80;12.30;;;16.70;99.90;;;;;;6279603;22;20438;-80
2021/06/26 01:49:10;;;;;;;19.37;12.70;;;16.70;99.90;;;;;;6279547;22;20489;-82
2021/06/26 01:51:37;;;;;;;19.87;12.57;;;16.60;99.90;;;;;;6280610;22;20443;-81
2021/06/26 01:54:05;;;;;;;22.03;13.07;;;16.60;99.90;;;;;;6280169;22;20426;-82
2021/06/26 01:56:32;;;;;;;23.77;14.57;;;16.60;99.90;;;;;;6280308;22;20489;-80
2021/06/26 01:59:00;;;;;;;20.30;12.97;;;16.60;99.90;;;;;;6279520;22;20437;-82
2021/06/26 02:01:27;;;;;;;19.97;13.57;;;16.60;99.90;;;;;;6280392;22;20406;-81
2021/06/26 02:03:54;;;;;;;21.10;13.50;;;16.50;99.90;;;;;;6281792;22;20487;-81
2021/06/26 02:06:21;;;;;;;20.60;13.93;;;16.50;99.90;;;;;;6282464;22;20502;-82
2021/06/26 02:08:48;;;;;;;22.63;12.70;;;16.40;99.90;;;;;;6282157;22;20406;-81
2021/06/26 02:11:15;;;;;;;20.57;13.93;;;16.40;99.90;;;;;;6282552;22;20417;-82
2021/06/26 02:13:41;;;;;;;20.60;13.03;;;16.40;99.90;;;;;;6282125;22;20399;-81
2021/06/26 02:16:10;;;;;;;20.40;14.23;;;16.40;99.90;;;;;;6281968;22;20489;-81
2021/06/26 02:18:37;;;;;;;22.23;14.13;;;16.40;99.90;;;;;;6282942;22;20780;-81
2021/06/26 02:21:05;;;;;;;22.33;13.27;;;16.30;99.90;;;;;;6282041;22;20434;-81
2021/06/26 02:23:32;;;;;;;19.43;13.70;;;16.30;99.90;;;;;;6283379;22;20434;-82
2021/06/26 02:25:59;;;;;;;23.47;14.80;;;16.30;99.90;;;;;;6281937;22;20513;-81
2021/06/26 02:28:26;;;;;;;19.87;13.53;;;16.20;99.90;;;;;;6281817;22;20403;-82
2021/06/26 02:30:53;;;;;;;21.77;13.73;;;16.20;99.90;;;;;;6282143;22;20762;-82
2021/06/26 02:33:21;;;;;;;21.57;14.13;;;16.20;99.90;;;;;;6281843;22;20461;-81
2021/06/26 02:35:48;;;;;;;20.00;13.53;;;16.20;99.90;;;;;;6282549;22;20403;-81
2021/06/26 02:38:14;;;;;;;23.97;14.67;;;16.20;99.90;;;;;;6282557;22;20441;-81
2021/06/26 02:40:41;;;;;;;20.53;13.83;;;16.10;99.90;;;;;;6281935;22;20407;-81
2021/06/26 02:43:08;;;;;;;19.77;12.97;;;16.10;99.90;;;;;;6281861;22;20522;-81
2021/06/26 02:45:35;;;;;;;21.60;14.60;;;16.10;99.90;;;;;;6282034;22;20490;-81
2021/06/26 02:48:02;;;;;;;19.93;13.57;;;16.10;99.90;;;;;;6281661;22;20503;-81
2021/06/26 02:50:30;;;;;;;21.97;14.33;;;16.10;99.90;;;;;;6281635;22;20507;-81
2021/06/26 02:52:57;;;;;;;19.93;13.77;;;16.00;99.90;;;;;;6281627;22;20441;-81
2021/06/26 02:55:23;;;;;;;21.23;14.17;;;16.00;99.90;;;;;;6281238;22;20437;-82
2021/06/26 02:57:50;;;;;;;21.47;14.87;;;16.10;99.90;;;;;;6281525;22;20905;-82
2021/06/26 03:00:18;;;;;;;21.30;14.60;;;16.10;99.90;;;;;;6281590;22;20474;-82
2021/06/26 03:02:45;;;;;;;21.27;14.97;;;16.00;99.90;;;;;;6281695;22;20426;-82
2021/06/26 03:05:12;;;;;;;23.60;14.93;;;16.00;99.90;;;;;;6281210;22;20489;-81
2021/06/26 03:07:40;;;;;;;19.33;13.40;;;16.00;99.90;;;;;;6281885;22;20442;-81
2021/06/26 03:10:08;;;;;;;22.20;15.40;;;16.00;99.90;;;;;;6281428;22;20415;-81
2021/06/26 03:12:35;;;;;;;20.47;14.50;;;16.00;99.90;;;;;;6281193;22;20522;-81
2021/06/26 03:15:02;;;;;;;23.20;14.23;;;16.00;99.90;;;;;;6281517;22;20450;-81
2021/06/26 03:17:28;;;;;;;22.73;15.93;;;15.90;99.90;;;;;;6280781;22;20966;-82
2021/06/26 03:19:55;;;;;;;21.93;14.57;;;15.90;99.90;;;;;;6281391;22;20410;-82
2021/06/26 03:22:22;;;;;;;21.73;15.00;;;15.90;99.90;;;;;;6282636;22;20502;-81
2021/06/26 03:24:50;;;;;;;23.10;14.97;;;15.90;99.90;;;;;;6282179;22;20406;-82
2021/06/26 03:27:17;;;;;;;19.83;15.00;;;15.90;99.90;;;;;;6281705;22;20447;-82
2021/06/26 03:29:44;;;;;;;21.90;15.43;;;15.90;99.90;;;;;;6282440;22;20817;-81
2021/06/26 03:32:11;;;;;;;20.47;14.30;;;16.00;99.90;;;;;;6283020;22;20513;-81
2021/06/26 03:34:38;;;;;;;23.03;14.00;;;16.00;99.90;;;;;;6282756;22;20418;-82
2021/06/26 03:37:05;;;;;;;21.70;15.90;;;15.90;99.90;;;;;;6282216;22;20435;-81
2021/06/26 03:39:32;;;;;;;23.47;15.30;;;16.00;99.90;;;;;;6280538;22;20415;-81
2021/06/26 03:42:00;;;;;;;24.07;14.70;;;16.00;99.90;;;;;;6281062;22;20427;-82
2021/06/26 03:44:27;;;;;;;20.10;13.23;;;16.00;99.90;;;;;;6281232;22;20438;-81
2021/06/26 03:46:54;;;;;;;24.40;14.60;;;15.90;99.90;;;;;;6281242;22;20501;-81
2021/06/26 03:49:20;;;;;;;21.90;13.83;;;15.90;99.90;;;;;;6280618;22;20411;-81
2021/06/26 03:51:47;;;;;;;25.83;15.10;;;16.00;99.90;;;;;;6280997;22;20454;-81
2021/06/26 03:54:14;;;;;;;21.63;14.43;;;16.00;99.90;;;;;;6281740;22;20391;-81
2021/06/26 03:56:41;;;;;;;22.33;14.70;;;16.00;99.90;;;;;;6280591;22;20438;-80
2021/06/26 03:59:09;;;;;;;21.93;14.30;;;16.10;99.90;;;;;;6280449;22;20417;-80
2021/06/26 04:01:36;;;;;;;22.30;14.63;;;16.10;99.90;;;;;;6280614;22;20490;-80
2021/06/26 04:04:03;;;;;;;20.80;15.23;;;16.10;99.90;;;;;;6281401;22;20466;-80
2021/06/26 04:06:29;;;;;;;26.40;17.03;;;16.10;99.90;;;;;;6280065;22;20456;-80
2021/06/26 04:08:56;;;;;;;22.13;16.60;;;16.20;99.90;;;;;;6280475;22;20406;-80
2021/06/26 04:11:23;;;;;;;22.40;16.37;;;16.20;99.90;;;;;;6279993;22;20449;-80
2021/06/26 04:13:50;;;;;;;21.97;16.53;;;16.20;99.90;;;;;;6280571;22;20413;-79
2021/06/26 04:16:18;;;;;;;23.57;16.57;;;16.30;99.90;;;;;;6279988;22;20410;-80
2021/06/26 04:18:45;;;;;;;23.07;15.20;;;16.30;99.90;;;;;;6279539;22;20410;-80
2021/06/26 04:21:12;;;;;;;23.03;16.17;;;16.40;99.90;;;;;;6280497;22;20497;-80
2021/06/26 04:23:38;;;;;;;21.57;14.70;;;16.40;99.90;;;;;;6278544;22;20513;-78
2021/06/26 04:26:05;;;;;;;22.17;15.80;;;16.50;99.90;;;;;;6279836;22;20490;-79
2021/06/26 04:28:32;;;;;;;20.63;14.80;;;16.60;99.90;;;;;;6280175;22;20479;-82
2021/06/26 04:30:59;;;;;;;23.03;16.20;;;16.70;99.90;;;;;;6282274;22;20434;-81
2021/06/26 04:33:28;;;;;;;22.53;15.63;;;16.70;99.90;;;;;;6280554;22;20441;-81
2021/06/26 04:35:55;;;;;;;22.80;16.57;;;16.70;99.90;;;;;;6281035;22;20409;-81
2021/06/26 04:38:22;;;;;;;21.20;15.73;;;16.80;99.90;;;;;;6281105;22;20475;-81
2021/06/26 04:40:49;;;;;;;22.40;14.90;;;16.90;99.90;;;;;;6280953;22;20777;-81
2021/06/26 04:43:16;;;;;;;22.60;16.00;;;16.90;99.90;;;;;;6280954;22;20458;-81
2021/06/26 04:45:44;;;;;;;23.73;16.23;;;17.00;99.90;;;;;;6280652;22;20407;-81
2021/06/26 04:48:11;;;;;;;20.73;15.80;;;17.00;99.90;;;;;;6280508;22;20480;-81
2021/06/26 04:50:39;;;;;;;24.00;17.03;;;17.10;99.90;;;;;;6280620;22;20756;-81
2021/06/26 04:53:06;;;;;;;21.70;16.07;;;17.10;99.90;;;;;;6280688;22;20736;-81
2021/06/26 04:55:33;;;;;;;24.40;17.57;;;17.20;99.90;;;;;;6281172;22;20752;-82
2021/06/26 04:58:00;;;;;;;24.40;16.50;;;17.20;99.90;;;;;;6281275;22;20431;-82
2021/06/26 05:00:28;;;;;;;24.13;18.07;;;17.30;99.90;;;;;;6281483;22;20415;-82
2021/06/26 05:02:54;;;;;;;23.40;15.73;;;17.40;99.90;;;;;;6280625;22;20441;-82
2021/06/26 05:05:21;;;;;;;26.37;17.70;;;17.40;99.90;;;;;;6276135;22;20477;-81
2021/06/26 05:07:49;;;;;;;24.40;16.53;;;17.50;99.90;;;;;;6282253;22;20537;-80
2021/06/26 05:10:16;;;;;;;23.23;18.13;;;17.60;99.90;;;;;;6280973;22;20442;-80
2021/06/26 05:12:44;;;;;;;23.93;17.00;;;17.70;99.90;;;;;;6281364;22;20406;-80
2021/06/26 05:15:11;;;;;;;23.30;17.43;;;17.70;99.90;;;;;;6281814;22;20768;-80
2021/06/26 05:17:38;;;;;;;25.10;18.90;;;17.80;99.90;;;;;;6281040;22;21031;-80
2021/06/26 05:20:06;;;;;;;24.37;17.90;;;17.90;99.90;;;;;;6281535;22;20441;-79
2021/06/26 05:22:33;;;;;;;24.80;17.90;;;18.00;99.90;;;;;;6281803;22;20441;-79
2021/06/26 05:25:02;;;;;;;21.93;16.70;;;18.10;99.90;;;;;;6281271;22;20486;-81
2021/06/26 05:27:28;;;;;;;24.20;17.73;;;18.20;99.90;;;;;;6280305;22;20526;-79
2021/06/26 05:29:55;;;;;;;25.00;17.60;;;18.20;99.90;;;;;;6281043;22;20474;-79
2021/06/26 05:32:22;;;;;;;25.07;18.40;;;18.30;99.90;;;;;;6280306;22;20449;-79
2021/06/26 05:34:49;;;;;;;24.73;17.43;;;18.30;99.90;;;;;;6280533;22;20427;-79
2021/06/26 05:37:15;;;;;;;26.17;18.13;;;18.30;99.90;;;;;;6281844;22;20811;-79
2021/06/26 05:39:42;;;;;;;26.17;17.90;;;18.40;99.90;;;;;;6282268;22;20441;-78
2021/06/26 05:42:10;;;;;;;28.43;19.70;;;18.40;99.90;;;;;;6283319;22;20410;-79
2021/06/26 05:44:37;;;;;;;28.43;19.97;;;18.60;99.90;;;;;;6282272;22;20913;-79
2021/06/26 05:47:05;;;;;;;26.07;20.47;;;18.70;99.90;;;;;;6282797;22;20438;-79
2021/06/26 05:49:31;;;;;;;29.10;18.43;;;18.80;99.90;;;;;;6281536;22;20506;-81
2021/06/26 05:51:58;;;;;;;25.50;18.10;;;18.90;99.90;;;;;;6282644;22;20407;-81
2021/06/26 05:54:25;;;;;;;29.40;20.07;;;18.90;99.90;;;;;;6282228;22;20409;-81
2021/06/26 05:56:52;;;;;;;25.80;19.13;;;19.00;99.90;;;;;;6282373;22;20446;-81
2021/06/26 05:59:20;;;;;;;27.00;19.63;;;19.20;99.90;;;;;;6281633;22;20418;-80
2021/06/26 06:01:47;;;;;;;31.70;18.70;;;19.40;99.90;;;;;;6282809;22;20466;-81
2021/06/26 06:04:14;;;;;;;27.60;19.83;;;19.50;99.90;;;;;;6282912;22;20407;-81
2021/06/26 06:06:40;;;;;;;29.37;20.63;;;19.60;99.90;;;;;;6281575;22;20461;-81
2021/06/26 06:09:08;;;;;;;25.00;18.87;;;19.70;99.90;;;;;;6281829;22;20498;-81
2021/06/26 06:11:35;;;;;;;28.40;21.27;;;19.80;99.90;;;;;;6282274;22;20433;-82
2021/06/26 06:14:02;;;;;;;29.63;20.27;;;19.80;99.90;;;;;;6282914;22;20803;-81
2021/06/26 06:16:30;;;;;;;29.23;20.30;;;19.90;99.90;;;;;;6285347;22;20524;-82
2021/06/26 06:18:57;;;;;;;29.10;22.07;;;19.90;99.90;;;;;;6283108;22;20435;-81
2021/06/26 06:21:24;;;;;;;28.30;20.80;;;20.00;99.90;;;;;;6283227;22;20836;-81
2021/06/26 06:23:51;;;;;;;31.23;20.77;;;20.10;99.90;;;;;;6280571;22;20938;-82
2021/06/26 06:26:18;;;;;;;28.80;19.97;;;20.10;99.90;;;;;;6278766;22;20434;-81
2021/06/26 06:28:45;;;;;;;28.27;20.13;;;20.00;99.90;;;;;;6280810;22;20541;-81
2021/06/26 06:31:13;;;;;;;28.20;19.43;;;20.00;99.90;;;;;;6279532;22;20497;-81
2021/06/26 06:33:41;;;;;;;32.00;20.67;;;20.10;99.90;;;;;;6280393;22;20445;-81
2021/06/26 06:36:08;;;;;;;31.73;22.83;;;20.20;99.90;;;;;;6280824;22;20513;-81
2021/06/26 06:38:35;;;;;;;27.73;20.57;;;20.20;99.90;;;;;;6278593;22;20903;-81
2021/06/26 06:41:02;;;;;;;26.17;18.20;;;20.10;99.90;;;;;;6280602;22;20465;-82
2021/06/26 06:43:29;;;;;;;26.23;18.50;;;20.10;99.90;;;;;;6280735;22;20426;-81
2021/06/26 06:45:56;;;;;;;28.23;20.20;;;20.00;99.90;;;;;;6288899;22;20458;-81
2021/06/26 06:48:23;;;;;;;27.43;17.60;;;20.10;99.90;;;;;;6291039;22;20450;-81
2021/06/26 06:50:51;;;;;;;24.00;17.77;;;20.10;99.90;;;;;;6291172;22;20813;-81
2021/06/26 06:53:20;;;;;;;26.47;17.20;;;20.10;99.90;;;;;;6290915;22;20422;-80
2021/06/26 06:55:50;;;;;;;25.37;18.43;;;20.10;99.90;;;;;;6291029;22;20438;-82
2021/06/26 06:58:18;;;;;;;26.73;18.90;;;20.10;99.90;;;;;;6294974;22;20466;-81
2021/06/26 07:00:46;;;;;;;24.00;17.37;;;20.10;99.90;;;;;;6282131;22;20784;-82
2021/06/26 07:03:14;;;;;;;26.60;16.23;;;20.10;99.90;;;;;;6282179;22;20495;-82
2021/06/26 07:05:42;;;;;;;24.17;17.07;;;20.30;99.90;;;;;;6281586;22;20431;-82
2021/06/26 07:08:10;;;;;;;21.20;15.87;;;20.40;99.90;;;;;;6281497;22;20529;-84
2021/06/26 07:10:37;;;;;;;24.30;16.80;;;20.50;99.90;;;;;;6279212;22;20391;-82
2021/06/26 07:13:04;;;;;;;25.87;16.80;;;20.50;99.90;;;;;;6282766;22;20474;-83
2021/06/26 07:15:31;;;;;;;27.87;17.60;;;20.60;99.90;;;;;;6283477;22;21000;-83
2021/06/26 07:17:58;;;;;;;23.80;15.53;;;20.70;99.90;;;;;;6281760;22;20485;-84
2021/06/26 07:20:25;;;;;;;23.50;15.73;;;20.80;99.90;;;;;;6290250;22;20798;-83
2021/06/26 07:22:54;;;;;;;26.23;14.30;;;20.90;99.90;;;;;;6302842;22;20407;-83
2021/06/26 07:25:22;;;;;;;21.83;13.50;;;21.10;99.90;;;;;;6303585;22;20473;-83
2021/06/26 07:27:49;;;;;;;19.43;12.17;;;21.30;99.90;;;;;;6293062;22;20461;-83
2021/06/26 07:30:16;;;;;;;21.40;12.90;;;21.30;99.90;;;;;;6284497;22;20418;-83
2021/06/26 07:32:45;;;;;;;22.13;12.40;;;21.30;99.90;;;;;;6284579;22;20427;-83
2021/06/26 07:35:13;;;;;;;21.60;12.47;;;21.40;99.90;;;;;;6283334;22;20430;-83
2021/06/26 07:37:40;;;;;;;17.50;10.33;;;21.60;99.90;;;;;;6284851;22;20403;-83
2021/06/26 07:40:08;;;;;;;20.70;11.50;;;21.70;99.90;;;;;;6282523;22;20459;-82
2021/06/26 07:42:36;;;;;;;19.13;10.47;;;21.80;99.90;;;;;;6284192;22;20797;-82
2021/06/26 07:45:04;;;;;;;21.10;10.60;;;21.90;99.90;;;;;;6281842;22;20453;-83
2021/06/26 07:47:31;;;;;;;29.77;12.13;;;22.10;99.90;;;;;;6282538;22;20448;-83
2021/06/26 07:49:58;;;;;;;25.13;12.00;;;22.00;99.90;;;;;;6283447;22;20498;-84
2021/06/26 07:52:24;;;;;;;29.27;11.10;;;22.10;99.90;;;;;;6283502;22;20911;-84
2021/06/26 07:54:51;;;;;;;40.43;12.97;;;22.30;99.90;;;;;;6282986;22;20487;-84
2021/06/26 07:57:18;;;;;;;40.10;13.67;;;22.40;99.90;;;;;;6283002;22;20925;-84
2021/06/26 07:59:46;;;;;;;598.10;565.90;;;22.60;99.90;;;;;;6282797;22;20470;-83
2021/06/26 08:02:13;;;;;;;111.87;101.67;;;22.60;99.90;;;;;;6282528;22;20430;-83
2021/06/26 08:04:40;;;;;;;73.23;62.83;;;22.70;99.90;;;;;;6284894;22;20438;-83
2021/06/26 08:07:07;;;;;;;359.10;339.03;;;22.90;99.90;;;;;;6282912;22;20481;-83
2021/06/26 08:09:34;;;;;;;702.03;662.67;;;23.10;99.90;;;;;;6282275;22;20405;-83
2021/06/26 08:12:00;;;;;;;58.70;28.37;;;23.20;99.90;;;;;;6284113;22;20442;-83
2021/06/26 08:14:27;;;;;;;1999.90;999.90;;;23.40;99.90;;;;;;6282595;22;20449;-83
2021/06/26 08:16:55;;;;;;;176.83;160.87;;;23.40;99.90;;;;;;6283312;22;20403;-83
2021/06/26 08:19:22;;;;;;;1999.90;999.90;;;23.70;99.90;;;;;;6283176;22;20406;-85
2021/06/26 08:21:49;;;;;;;1999.90;999.90;;;23.70;99.90;;;;;;6281513;22;20426;-84
2021/06/26 08:24:16;;;;;;;150.10;135.73;;;23.80;99.90;;;;;;6282230;22;20481;-83
2021/06/26 08:26:43;;;;;;;1999.90;999.90;;;24.00;99.90;;;;;;6283009;22;20461;-83
2021/06/26 08:29:10;;;;;;;1999.90;999.90;;;24.20;99.90;;;;;;6281619;22;20446;-84
2021/06/26 08:31:36;;;;;;;1999.90;999.90;;;24.40;99.90;;;;;;6283488;22;20406;-84
2021/06/26 08:34:05;;;;;;;1999.90;999.90;;;24.40;99.90;;;;;;6283389;22;20411;-85
2021/06/26 08:36:32;;;;;;;1999.90;999.90;;;24.30;99.90;;;;;;6280199;22;20431;-84
2021/06/26 08:39:01;;;;;;;1999.90;999.90;;;24.60;99.90;;;;;;6282822;22;20439;-84
2021/06/26 08:41:30;;;;;;;1999.90;999.90;;;24.80;99.90;;;;;;6283569;22;20740;-85
2021/06/26 08:44:05;;;;;;;1999.90;999.90;;;25.00;99.90;;;;;;6286742;22;20403;-84
2021/06/26 08:46:33;;;;;;;263.67;248.23;;;25.10;99.90;;;;;;6287094;22;20494;-85
2021/06/26 08:49:00;;;;;;;358.13;334.57;;;25.20;99.90;;;;;;6286438;22;20474;-86
2021/06/26 08:51:28;;;;;;;1999.90;999.90;;;25.30;99.90;;;;;;6284728;22;20443;-86
2021/06/26 08:53:55;;;;;;;1999.90;999.90;;;25.50;99.90;;;;;;6285963;22;20394;-86
2021/06/26 08:56:22;;;;;;;427.70;398.70;;;25.70;99.90;;;;;;6285077;22;20499;-86
2021/06/26 08:58:49;;;;;;;964.70;611.43;;;25.70;99.90;;;;;;6285093;22;20411;-86
2021/06/26 09:01:16;;;;;;;293.30;271.23;;;25.80;99.90;;;;;;6284803;22;20419;-86
2021/06/26 09:03:46;;;;;;;1999.90;999.90;;;25.90;99.90;;;;;;6284055;22;20414;-87
2021/06/26 09:06:14;;;;;;;26.73;7.93;;;25.90;99.90;;;;;;6276618;22;20779;-88
2021/06/26 09:08:51;;;;;;;134.43;123.30;;;25.80;99.90;;;;;;6276915;22;20443;-87
2021/06/26 09:11:19;;;;;;;306.47;281.97;;;25.90;99.90;;;;;;6280126;22;20765;-86
2021/06/26 09:13:49;;;;;;;596.30;556.80;;;26.10;99.90;;;;;;6279260;22;20954;-88
2021/06/26 09:16:16;;;;;;;682.10;636.17;;;26.20;99.90;;;;;;6280130;22;20491;-88
2021/06/26 09:18:44;;;;;;;39.53;19.27;;;25.90;99.90;;;;;;6278964;22;20406;-88
2021/06/26 09:21:24;;;;;;;860.60;811.07;;;26.30;99.90;;;;;;6277909;22;20851;-88
2021/06/26 09:24:05;;;;;;;721.00;678.93;;;26.40;99.90;;;;;;6279054;22;20479;-88
2021/06/26 09:26:32;;;;;;;66.47;60.87;;;26.40;99.90;;;;;;6279209;22;20445;-88
2021/06/26 09:29:09;;;;;;;677.60;641.47;;;26.50;99.90;;;;;;6278838;22;20768;-89
2021/06/26 09:31:36;;;;;;;138.87;127.23;;;26.50;99.90;;;;;;6278458;22;20395;-88
2021/06/26 09:34:04;;;;;;;683.77;646.97;;;26.80;99.90;;;;;;6279225;22;20884;-88
2021/06/26 09:36:33;;;;;;;14.77;6.50;;;27.00;99.90;;;;;;6278578;22;20430;-90
2021/06/26 09:39:06;;;;;;;60.40;54.67;;;27.00;99.90;;;;;;6278777;22;20399;-88
2021/06/26 09:41:36;;;;;;;22.30;7.33;;;27.00;99.90;;;;;;6278539;22;20421;-87
2021/06/26 09:44:11;;;;;;;18.30;6.40;;;27.30;99.90;;;;;;6278487;22;20472;-87
2021/06/26 09:46:46;;;;;;;9.37;7.00;;;27.40;99.90;;;;;;6277916;22;20529;-87
2021/06/26 09:49:16;;;;;;;11.00;7.70;;;27.20;99.90;;;;;;6280417;22;20442;-86
2021/06/26 09:51:43;;;;;;;15.77;7.27;;;27.40;99.90;;;;;;6279580;22;20410;-88
2021/06/26 09:54:12;;;;;;;9.60;6.13;;;27.60;99.90;;;;;;6280227;22;20947;-86
2021/06/26 09:56:43;;;;;;;13.77;7.20;;;27.70;99.90;;;;;;6278226;22;20426;-86
2021/06/26 09:59:11;;;;;;;8.70;5.63;;;27.90;99.90;;;;;;6277422;22;20739;-85
2021/06/26 10:01:42;;;;;;;8.30;6.57;;;28.10;99.90;;;;;;6279057;22;20482;-86
2021/06/26 10:04:13;;;;;;;7.93;5.57;;;28.20;99.90;;;;;;6277659;22;20530;-85
2021/06/26 10:06:40;;;;;;;12.93;7.00;;;28.30;99.90;;;;;;6277393;22;20458;-87
2021/06/26 10:09:07;;;;;;;8.47;5.70;;;29.10;99.90;;;;;;6277886;22;20446;-86
2021/06/26 10:11:37;;;;;;;8.93;5.73;;;29.60;99.90;;;;;;6279905;22;20490;-86
2021/06/26 10:14:09;;;;;;;9.03;6.27;;;29.40;99.90;;;;;;6277685;22;20442;-85
2021/06/26 10:16:39;;;;;;;9.60;5.60;;;29.30;99.90;;;;;;6278161;22;20426;-85
2021/06/26 10:19:08;;;;;;;8.97;6.10;;;29.20;99.90;;;;;;6278645;22;20797;-86
2021/06/26 10:21:35;;;;;;;8.43;5.80;;;29.10;99.90;;;;;;6278973;22;20502;-86
2021/06/26 10:24:06;;;;;;;7.83;5.70;;;28.70;99.90;;;;;;6277659;22;20411;-86
2021/06/26 10:26:40;;;;;;;8.83;5.93;;;28.50;99.90;;;;;;6277458;22;20418;-86
2021/06/26 10:29:08;;;;;;;8.00;5.97;;;28.10;99.90;;;;;;6276971;22;20508;-86
2021/06/26 10:31:36;;;;;;;8.60;5.37;;;27.80;99.90;;;;;;6277958;22;20446;-85
2021/06/26 10:34:11;;;;;;;9.60;6.63;;;27.50;99.90;;;;;;6277686;22;20756;-86
2021/06/26 10:36:39;;;;;;;10.07;6.20;;;27.00;99.90;;;;;;6277445;22;20505;-86
2021/06/26 10:39:18;;;;;;;7.80;5.60;;;26.90;99.90;;;;;;6278608;22;20407;-86
2021/06/26 10:41:57;;;;;;;9.00;5.67;;;26.40;99.90;;;;;;6278363;22;20395;-86
2021/06/26 10:44:24;;;;;;;10.90;6.50;;;26.50;99.90;;;;;;6278313;22;20917;-86
2021/06/26 10:46:51;;;;;;;7.80;5.30;;;26.50;99.90;;;;;;6277691;22;20426;-86
2021/06/26 10:49:28;;;;;;;11.40;6.83;;;26.30;99.90;;;;;;6277516;22;20445;-85
2021/06/26 10:51:55;;;;;;;11.03;6.53;;;26.30;99.90;;;;;;6277849;22;20485;-86
2021/06/26 10:54:22;;;;;;;11.23;7.00;;;26.40;99.90;;;;;;6277079;22;20472;-87
2021/06/26 10:57:04;;;;;;;11.87;6.20;;;26.30;99.90;;;;;;6277961;22;20419;-87
2021/06/26 10:59:35;;;;;;;14.00;6.63;;;26.10;99.90;;;;;;6277331;22;20407;-87
2021/06/26 11:02:10;;;;;;;8.83;6.33;;;25.90;99.90;;;;;;6278222;22;20415;-87
2021/06/26 11:07:34;;;;;;;12.47;6.40;;;25.80;99.90;;;;;;6276298;22;20494;-86
2021/06/26 11:10:08;;;;;;;9.83;6.20;;;25.80;99.90;;;;;;6278282;22;20450;-86
2021/06/26 11:12:42;;;;;;;10.43;6.63;;;25.40;99.90;;;;;;6278441;22;20395;-87
2021/06/26 11:15:10;;;;;;;11.33;6.77;;;25.40;99.90;;;;;;6278123;22;20446;-87
2021/06/26 11:17:39;;;;;;;10.33;5.40;;;25.40;99.90;;;;;;6277795;22;20476;-87
2021/06/26 11:20:08;;;;;;;14.47;6.00;;;25.50;99.90;;;;;;6277254;22;20403;-86
2021/06/26 11:22:35;;;;;;;26.70;7.10;;;25.30;99.90;;;;;;6277515;22;20725;-87
2021/06/26 11:25:03;;;;;;;20.73;6.30;;;25.50;99.90;;;;;;6277371;22;20526;-86
2021/06/26 11:27:33;;;;;;;9.63;6.13;;;25.60;99.90;;;;;;6276787;22;20505;-86
2021/06/26 11:30:04;;;;;;;11.60;6.43;;;25.70;99.90;;;;;;6276978;22;20442;-87
2021/06/26 11:32:32;;;;;;;8.40;6.03;;;25.50;99.90;;;;;;6277518;22;20399;-86
2021/06/26 11:35:01;;;;;;;12.50;6.80;;;25.60;99.90;;;;;;6271874;22;20458;-83
2021/06/26 11:37:34;;;;;;;9.30;6.93;;;26.00;99.90;;;;;;6286171;22;20482;-83
2021/06/26 11:40:02;;;;;;;8.60;5.40;;;26.10;99.90;;;;;;6284245;22;20454;-83
2021/06/26 11:42:29;;;;;;;12.60;7.87;;;26.30;99.90;;;;;;6284418;22;20494;-84
2021/06/26 11:44:56;;;;;;;9.60;6.20;;;26.60;99.90;;;;;;6284735;22;20457;-84
2021/06/26 11:47:27;;;;;;;12.53;8.03;;;26.60;99.90;;;;;;6286601;22;20407;-83
2021/06/26 11:49:55;;;;;;;9.07;6.13;;;26.50;99.90;;;;;;6261120;22;20453;-84
2021/06/26 11:52:22;;;;;;;10.07;6.33;;;27.00;99.90;;;;;;6288956;22;20426;-84
2021/06/26 11:54:48;;;;;;;10.33;5.83;;;27.40;99.90;;;;;;6288465;22;20506;-84
2021/06/26 11:57:16;;;;;;;8.13;5.67;;;27.70;99.90;;;;;;6288000;22;20450;-84
2021/06/26 11:59:45;;;;;;;10.13;6.87;;;27.80;99.90;;;;;;6286384;22;20442;-85
2021/06/26 12:02:13;;;;;;;7.90;5.90;;;28.10;99.90;;;;;;6286781;22;20467;-85
2021/06/26 12:04:42;;;;;;;7.80;6.10;;;28.40;99.90;;;;;;6286322;22;20495;-85
2021/06/26 12:07:10;;;;;;;9.30;5.80;;;28.70;99.90;;;;;;6287330;22;20450;-85
2021/06/26 12:09:40;;;;;;;8.67;6.40;;;29.00;99.90;;;;;;6285872;22;20473;-88
2021/06/26 12:12:08;;;;;;;9.07;5.60;;;28.40;99.90;;;;;;6286355;22;20466;-87
2021/06/26 12:14:36;;;;;;;9.47;5.90;;;29.50;99.90;;;;;;6285739;22;20486;-85
2021/06/26 12:17:09;;;;;;;9.57;5.80;;;28.70;99.90;;;;;;6285710;22;20423;-84
2021/06/26 12:19:36;;;;;;;9.80;5.80;;;29.20;99.90;;;;;;6286751;22;20407;-84
2021/06/26 12:22:06;;;;;;;8.33;5.30;;;29.40;99.90;;;;;;6285528;22;20406;-86
2021/06/26 12:24:36;;;;;;;7.97;5.60;;;29.40;99.90;;;;;;6287541;22;20497;-84
2021/06/26 12:27:11;;;;;;;10.37;5.43;;;29.30;99.90;;;;;;6287336;22;20413;-83
2021/06/26 12:29:39;;;;;;;7.77;6.07;;;29.30;99.90;;;;;;6288023;22;20423;-85
2021/06/26 12:32:07;;;;;;;8.50;5.53;;;29.20;99.90;;;;;;6288133;22;20414;-84
2021/06/26 12:34:45;;;;;;;6.93;5.50;;;29.10;99.90;;;;;;6287520;22;20745;-84